Time;durP1;ratioP1;P1;durP2;ratioP2;P2;SDS_P1;SDS_P2;PMS_P1;PMS_P2;Temp;Humidity;BMP_temperature;BMP_pressure;BME280_temperature;BME280_humidity;BME280_pressure;Samples;Min_cycle;Max_cycle;Signal;HPM_P1;HPM_P2
2023/01/14 00:01:13;;;;;;;5.70;1.33;;;6.40;99.90;;;;;;4990803;28;20469;-76
2023/01/14 00:03:38;;;;;;;7.63;1.30;;;6.40;99.90;;;;;;4991659;28;20507;-76
2023/01/14 00:06:04;;;;;;;3.20;1.00;;;6.40;99.90;;;;;;4991828;28;20508;-76
2023/01/14 00:08:30;;;;;;;3.67;1.00;;;6.30;99.90;;;;;;4990164;28;20308;-76
2023/01/14 00:11:04;;;;;;;3.63;1.20;;;6.30;99.90;;;;;;4991170;28;20483;-76
2023/01/14 00:13:32;;;;;;;8.43;1.40;;;6.20;99.90;;;;;;4991204;28;20455;-77
2023/01/14 00:15:58;;;;;;;4.80;1.17;;;6.20;99.90;;;;;;4991139;28;20444;-75
2023/01/14 00:18:24;;;;;;;2.47;0.80;;;6.20;99.90;;;;;;4990918;28;20511;-76
2023/01/14 00:20:59;;;;;;;7.80;1.87;;;6.10;99.90;;;;;;4991299;28;20174;-76
2023/01/14 00:23:25;;;;;;;7.27;1.50;;;6.10;99.90;;;;;;4991025;28;20412;-76
2023/01/14 00:25:51;;;;;;;5.20;1.20;;;6.10;99.90;;;;;;4973969;28;20617;-77
2023/01/14 00:28:17;;;;;;;3.93;1.07;;;6.10;99.90;;;;;;4991026;28;20533;-76
2023/01/14 00:30:43;;;;;;;4.77;1.20;;;6.10;99.90;;;;;;4991212;28;20428;-75
2023/01/14 00:33:08;;;;;;;6.37;1.47;;;6.10;99.90;;;;;;4989936;28;20303;-77
2023/01/14 00:35:34;;;;;;;7.20;1.63;;;6.00;99.90;;;;;;4989967;28;20236;-77
2023/01/14 00:38:00;;;;;;;5.73;1.00;;;6.10;99.90;;;;;;4989801;28;20209;-77
2023/01/14 00:40:26;;;;;;;12.77;1.70;;;6.10;99.90;;;;;;4973636;28;21013;-78
2023/01/14 00:42:51;;;;;;;7.80;1.20;;;6.00;99.90;;;;;;4957260;28;20508;-78
2023/01/14 00:45:17;;;;;;;6.73;1.53;;;6.00;99.90;;;;;;4991138;28;20584;-77
2023/01/14 00:47:42;;;;;;;3.70;1.47;;;6.00;99.90;;;;;;4991113;28;20583;-77
2023/01/14 00:50:10;;;;;;;2.93;0.83;;;6.00;99.90;;;;;;4989528;28;20190;-77
2023/01/14 00:52:36;;;;;;;4.20;1.17;;;6.00;99.90;;;;;;4957303;28;20285;-77
2023/01/14 00:55:01;;;;;;;6.10;1.50;;;6.00;99.90;;;;;;4989830;28;20520;-78
2023/01/14 00:57:27;;;;;;;6.60;1.23;;;6.00;99.90;;;;;;4990953;28;20182;-78
2023/01/14 00:59:52;;;;;;;3.87;0.93;;;6.00;99.90;;;;;;4989995;28;20638;-76
2023/01/14 01:02:18;;;;;;;7.30;1.60;;;6.00;99.90;;;;;;4973156;28;20209;-77
2023/01/14 01:04:43;;;;;;;4.00;1.23;;;6.00;99.90;;;;;;4990596;28;20186;-76
2023/01/14 01:07:09;;;;;;;2.63;1.50;;;6.00;99.90;;;;;;4990625;28;20186;-76
2023/01/14 01:09:35;;;;;;;6.83;1.50;;;6.10;99.90;;;;;;4988894;28;20413;-76
2023/01/14 01:12:00;;;;;;;7.23;1.30;;;6.10;99.90;;;;;;4990569;28;20192;-76
2023/01/14 01:14:26;;;;;;;2.53;1.20;;;6.00;99.90;;;;;;4990856;28;20252;-76
2023/01/14 01:16:52;;;;;;;3.87;1.33;;;6.00;99.90;;;;;;4990341;28;20194;-76
2023/01/14 01:19:17;;;;;;;3.13;1.10;;;6.00;99.90;;;;;;4972660;28;20229;-77
2023/01/14 01:21:43;;;;;;;2.97;0.93;;;6.00;99.90;;;;;;4988404;28;20961;-76
2023/01/14 01:24:08;;;;;;;4.13;0.90;;;6.00;99.90;;;;;;4989071;28;20188;-77
2023/01/14 01:26:34;;;;;;;5.13;1.50;;;6.00;99.90;;;;;;4990452;28;20189;-77
2023/01/14 01:29:00;;;;;;;2.87;1.00;;;6.00;99.90;;;;;;4990122;28;20301;-77
2023/01/14 01:31:27;;;;;;;8.80;1.77;;;6.00;99.90;;;;;;4989184;28;21148;-77
2023/01/14 01:33:53;;;;;;;8.53;1.10;;;6.00;99.90;;;;;;4990740;28;20206;-77
2023/01/14 01:36:21;;;;;;;5.03;1.43;;;6.00;99.90;;;;;;4991678;28;20758;-77
2023/01/14 01:38:47;;;;;;;6.83;2.27;;;6.00;99.90;;;;;;4990225;28;20539;-76
2023/01/14 01:41:19;;;;;;;3.50;1.10;;;5.90;99.90;;;;;;4990303;28;20918;-76
2023/01/14 01:44:00;;;;;;;5.20;1.33;;;6.00;99.90;;;;;;4989742;28;20236;-76
2023/01/14 01:46:26;;;;;;;2.30;1.13;;;6.00;99.90;;;;;;4989865;28;20423;-76
2023/01/14 01:48:53;;;;;;;5.40;1.37;;;6.10;99.90;;;;;;4989732;28;20424;-76
2023/01/14 01:51:22;;;;;;;6.23;0.80;;;6.10;99.90;;;;;;4988446;28;20431;-76
2023/01/14 01:53:52;;;;;;;6.53;1.60;;;6.10;99.90;;;;;;4971967;28;20501;-76
2023/01/14 01:56:21;;;;;;;10.10;1.07;;;6.00;99.90;;;;;;4989755;28;20420;-76
2023/01/14 01:58:48;;;;;;;3.83;0.90;;;6.00;99.90;;;;;;4971847;28;20464;-76
2023/01/14 02:01:15;;;;;;;5.10;1.43;;;6.00;99.90;;;;;;4989601;28;20420;-76
2023/01/14 02:03:43;;;;;;;5.55;1.40;;;5.90;99.90;;;;;;4988097;28;20528;-76
2023/01/14 02:06:10;;;;;;;7.27;0.77;;;5.90;99.90;;;;;;4989633;28;20186;-76
2023/01/14 02:08:40;;;;;;;8.90;1.40;;;5.90;99.90;;;;;;4989462;28;20425;-77
2023/01/14 02:11:44;;;;;;;6.67;1.10;;;5.80;99.90;;;;;;4972348;28;20468;-77
2023/01/14 02:14:46;;;;;;;2.20;1.43;;;5.80;99.90;;;;;;4974518;28;20475;-76
2023/01/14 02:17:21;;;;;;;5.10;1.00;;;5.80;99.90;;;;;;4989452;28;21210;-76
2023/01/14 02:20:15;;;;;;;2.30;0.90;;;5.80;99.90;;;;;;4987693;28;20459;-76
2023/01/14 02:23:02;;;;;;;5.45;1.75;;;5.80;99.90;;;;;;4989187;28;20817;-76
2023/01/14 02:25:46;;;;;;;6.97;1.43;;;5.80;99.90;;;;;;4989607;28;20983;-76
2023/01/14 02:28:17;;;;;;;8.65;1.33;;;5.80;99.90;;;;;;4988635;28;20423;-79
2023/01/14 02:30:55;;;;;;;7.10;2.17;;;5.70;99.90;;;;;;4988073;28;20200;-76
2023/01/14 02:33:34;;;;;;;6.45;1.80;;;5.70;99.90;;;;;;4989161;28;20221;-75
2023/01/14 02:36:26;;;;;;;6.47;1.70;;;5.70;99.90;;;;;;4975734;28;20188;-76
2023/01/14 02:39:09;;;;;;;5.03;1.15;;;5.70;99.90;;;;;;4975494;28;20205;-76
2023/01/14 02:45:04;;;;;;;4.37;0.80;;;5.60;99.90;;;;;;4993424;28;20470;-77
2023/01/14 02:47:31;;;;;;;10.83;1.57;;;5.60;99.90;;;;;;4993269;28;20401;-76
2023/01/14 02:49:59;;;;;;;2.10;0.93;;;5.60;99.90;;;;;;4993140;28;20838;-75
2023/01/14 02:52:25;;;;;;;8.07;1.37;;;5.60;99.90;;;;;;4993123;28;20423;-76
2023/01/14 02:54:55;;;;;;;7.67;1.40;;;5.70;99.90;;;;;;4992781;28;20417;-76
2023/01/14 02:57:43;;;;;;;4.87;1.27;;;5.50;99.90;;;;;;4992849;28;20416;-76
2023/01/14 03:00:28;;;;;;;5.97;1.20;;;5.50;99.90;;;;;;4993419;28;20470;-77
2023/01/14 03:03:15;;;;;;;11.33;1.40;;;5.50;99.90;;;;;;4992751;28;20443;-77
2023/01/14 03:06:03;;;;;;;4.97;1.80;;;5.50;99.90;;;;;;4993401;28;20894;-77
2023/01/14 03:08:58;;;;;;;3.60;1.00;;;5.50;99.90;;;;;;4994892;28;20504;-78
2023/01/14 03:11:32;;;;;;;8.10;1.47;;;5.50;99.90;;;;;;4994144;28;20420;-77
2023/01/14 03:14:09;;;;;;;3.08;1.23;;;5.50;99.90;;;;;;4993358;28;20780;-77
2023/01/14 03:17:04;;;;;;;11.33;1.87;;;5.50;99.90;;;;;;4994727;28;20638;-77
2023/01/14 03:19:34;;;;;;;19.60;1.60;;;5.40;99.90;;;;;;4993526;28;20464;-77
2023/01/14 03:22:03;;;;;;;9.33;1.00;;;5.40;99.90;;;;;;4976383;28;20538;-78
2023/01/14 03:24:33;;;;;;;9.23;1.40;;;5.40;99.90;;;;;;4994062;28;20428;-77
2023/01/14 03:27:23;;;;;;;12.53;1.10;;;5.50;99.90;;;;;;4976341;28;20436;-77
2023/01/14 03:30:03;;;;;;;6.80;1.17;;;5.50;99.90;;;;;;4976054;28;20472;-76
2023/01/14 03:32:39;;;;;;;4.10;1.17;;;5.40;99.90;;;;;;4975700;28;20454;-75
2023/01/14 03:35:16;;;;;;;5.40;1.17;;;5.40;99.90;;;;;;4976013;28;20472;-75
2023/01/14 03:37:47;;;;;;;6.43;1.07;;;5.40;99.90;;;;;;4993379;28;20486;-75
2023/01/14 03:40:16;;;;;;;6.70;1.43;;;5.40;99.90;;;;;;4975680;28;20491;-76
2023/01/14 03:42:50;;;;;;;2.60;1.00;;;5.30;99.90;;;;;;4991918;28;20542;-75
2023/01/14 03:45:26;;;;;;;6.57;1.60;;;5.30;99.90;;;;;;4992558;28;20408;-76
2023/01/14 03:47:52;;;;;;;5.80;2.35;;;5.30;99.90;;;;;;4994479;28;20439;-78
2023/01/14 03:50:23;;;;;;;6.13;1.43;;;5.20;99.90;;;;;;4993200;28;20201;-77
2023/01/14 03:52:51;;;;;;;10.63;2.95;;;5.20;99.90;;;;;;4994708;28;20412;-79
2023/01/14 03:55:24;;;;;;;10.70;3.70;;;5.20;99.90;;;;;;4993778;28;20240;-77
2023/01/14 03:57:49;;;;;;;10.05;3.28;;;5.00;99.90;;;;;;4975486;28;20451;-77
2023/01/14 04:00:26;;;;;;;7.73;2.97;;;5.10;99.90;;;;;;4993142;28;20504;-76
2023/01/14 04:02:54;;;;;;;13.00;4.33;;;5.10;99.90;;;;;;4992750;28;20263;-77
2023/01/14 04:05:19;;;;;;;4.25;2.20;;;5.00;99.90;;;;;;4991185;28;20772;-76
2023/01/14 04:07:49;;;;;;;6.77;1.73;;;5.00;99.90;;;;;;4991396;28;20251;-77
2023/01/14 04:10:15;;;;;;;11.80;2.97;;;4.90;99.90;;;;;;4992693;28;20273;-76
2023/01/14 04:15:20;;;;;;;13.03;3.20;;;4.80;99.90;;;;;;4975230;28;20528;-78
2023/01/14 04:15:26;;;;;;;9.55;2.60;;;4.70;99.90;;;;;;4991987;28;20433;-77
2023/01/14 04:17:51;;;;;;;5.30;1.40;;;4.80;99.90;;;;;;4975307;28;20886;-77
2023/01/14 04:20:17;;;;;;;10.40;1.40;;;4.70;99.90;;;;;;4990933;28;20583;-77
2023/01/14 04:22:43;;;;;;;4.53;0.93;;;4.60;99.90;;;;;;4992593;28;20628;-79
2023/01/14 04:25:08;;;;;;;3.33;1.27;;;4.50;99.90;;;;;;4991199;28;20191;-77
2023/01/14 04:27:34;;;;;;;12.60;1.40;;;4.50;99.90;;;;;;4990800;28;20176;-77
2023/01/14 04:30:00;;;;;;;4.60;1.17;;;4.50;99.90;;;;;;4974651;28;20188;-77
2023/01/14 04:32:25;;;;;;;5.50;1.00;;;4.70;99.90;;;;;;4992196;28;20204;-77
2023/01/14 04:34:51;;;;;;;3.20;0.83;;;4.80;99.90;;;;;;4990469;28;20188;-76
2023/01/14 04:37:16;;;;;;;4.13;1.00;;;4.80;99.90;;;;;;4990368;28;20209;-77
2023/01/14 04:39:42;;;;;;;3.67;1.13;;;4.90;99.90;;;;;;4992303;28;20248;-77
2023/01/14 04:42:27;;;;;;;4.50;1.27;;;5.00;99.90;;;;;;4991329;28;20275;-77
2023/01/14 04:44:57;;;;;;;6.27;1.70;;;5.10;99.90;;;;;;4991939;28;20164;-76
2023/01/14 04:47:24;;;;;;;6.18;1.65;;;5.00;99.90;;;;;;4991726;28;21138;-77
2023/01/14 04:49:50;;;;;;;8.83;1.17;;;4.90;99.90;;;;;;4991787;28;20184;-77
2023/01/14 04:52:15;;;;;;;3.63;0.97;;;4.90;99.90;;;;;;4990394;28;20453;-76
2023/01/14 04:54:42;;;;;;;8.07;1.07;;;5.00;99.90;;;;;;4990381;28;20436;-77
2023/01/14 04:57:07;;;;;;;2.67;0.82;;;5.20;99.90;;;;;;4989255;28;20212;-76
2023/01/14 04:59:34;;;;;;;9.60;1.00;;;5.10;99.90;;;;;;4991192;28;20579;-77
2023/01/14 05:01:59;;;;;;;4.40;1.13;;;5.10;99.90;;;;;;4989786;28;20217;-77
2023/01/14 05:04:26;;;;;;;3.93;1.10;;;5.10;99.90;;;;;;4991135;28;20460;-77
2023/01/14 05:06:53;;;;;;;6.43;1.30;;;5.10;99.90;;;;;;4991732;28;20296;-77
2023/01/14 05:09:18;;;;;;;7.32;0.90;;;5.10;99.90;;;;;;4991485;28;20459;-77
2023/01/14 05:11:44;;;;;;;5.30;0.87;;;5.10;99.90;;;;;;4991603;28;20201;-77
2023/01/14 05:14:09;;;;;;;2.10;0.83;;;5.10;99.90;;;;;;4992403;28;20194;-78
2023/01/14 05:16:35;;;;;;;3.57;0.90;;;5.20;99.90;;;;;;4992787;28;20197;-78
2023/01/14 05:19:01;;;;;;;1.63;0.73;;;5.10;99.90;;;;;;4975504;28;20220;-79
2023/01/14 05:21:27;;;;;;;4.93;1.37;;;5.20;99.90;;;;;;4977397;28;20813;-79
2023/01/14 05:23:53;;;;;;;6.90;1.30;;;5.20;99.90;;;;;;4973133;28;20520;-77
2023/01/14 05:26:18;;;;;;;5.87;1.13;;;5.20;99.90;;;;;;4989204;28;20618;-76
2023/01/14 05:28:44;;;;;;;4.07;1.20;;;5.10;99.90;;;;;;4989230;28;20217;-76
2023/01/14 05:31:10;;;;;;;2.90;1.20;;;5.00;99.90;;;;;;4973331;28;20201;-80
2023/01/14 05:33:36;;;;;;;5.35;1.02;;;5.10;99.90;;;;;;4973326;28;20203;-79
2023/01/14 05:36:02;;;;;;;4.70;1.10;;;5.00;99.90;;;;;;4973000;28;20201;-79
2023/01/14 05:38:29;;;;;;;6.25;0.95;;;5.10;99.90;;;;;;4972896;28;20453;-79
2023/01/14 05:40:55;;;;;;;5.78;1.80;;;5.10;99.90;;;;;;4975632;28;20304;-76
2023/01/14 05:46:19;;;;;;;3.43;1.07;;;4.90;99.90;;;;;;4947329;28;20573;-77
2023/01/14 05:48:44;;;;;;;8.03;1.80;;;4.80;99.90;;;;;;4989707;28;20458;-77
2023/01/14 05:51:12;;;;;;;5.07;1.47;;;4.80;99.90;;;;;;4991088;28;20197;-77
2023/01/14 05:53:38;;;;;;;5.90;1.70;;;4.90;99.90;;;;;;4991537;28;20837;-76
2023/01/14 05:56:04;;;;;;;12.03;1.70;;;4.90;99.90;;;;;;4989874;28;20190;-76
2023/01/14 05:58:29;;;;;;;4.73;1.17;;;4.90;99.90;;;;;;4991702;28;20204;-76
2023/01/14 06:06:33;;;;;;;9.52;1.95;;;5.00;99.90;;;;;;4990915;28;20607;-79
2023/01/14 06:09:01;;;;;;;10.10;1.90;;;5.00;99.90;;;;;;4973102;28;20204;-79
2023/01/14 06:11:28;;;;;;;8.47;1.83;;;4.90;99.90;;;;;;4972751;28;20862;-79
2023/01/14 06:13:57;;;;;;;9.55;2.17;;;5.00;99.90;;;;;;4989151;28;20514;-80
2023/01/14 06:16:27;;;;;;;6.40;2.15;;;5.00;99.90;;;;;;4972827;28;20200;-78
2023/01/14 06:18:54;;;;;;;4.33;0.97;;;5.10;99.90;;;;;;4973093;28;20655;-78
2023/01/14 06:21:28;;;;;;;7.90;1.53;;;5.10;99.90;;;;;;4972939;28;20428;-78
2023/01/14 06:23:55;;;;;;;9.40;1.80;;;5.10;99.90;;;;;;4972678;28;20415;-78
2023/01/14 06:26:23;;;;;;;4.60;1.30;;;5.20;99.90;;;;;;4989903;28;20417;-79
2023/01/14 06:28:49;;;;;;;12.07;1.80;;;5.20;99.90;;;;;;4990447;28;20828;-78
2023/01/14 06:31:17;;;;;;;6.00;1.60;;;5.30;99.90;;;;;;4988760;28;20428;-77
2023/01/14 06:33:45;;;;;;;6.97;1.80;;;5.30;99.90;;;;;;4989903;28;20203;-78
2023/01/14 06:36:12;;;;;;;8.52;1.98;;;5.30;99.90;;;;;;4972466;28;20750;-78
2023/01/14 06:38:38;;;;;;;5.88;1.73;;;5.20;99.90;;;;;;4972902;28;20307;-77
2023/01/14 06:41:06;;;;;;;11.90;2.20;;;5.30;99.90;;;;;;4989937;28;20217;-77
2023/01/14 06:43:33;;;;;;;10.27;2.00;;;5.30;99.90;;;;;;4972691;28;20435;-78
2023/01/14 06:45:59;;;;;;;5.10;1.70;;;5.30;99.90;;;;;;4974392;28;20627;-79
2023/01/14 06:48:26;;;;;;;8.13;1.80;;;5.40;99.90;;;;;;4989049;28;20508;-78
2023/01/14 06:50:52;;;;;;;19.93;2.53;;;5.40;99.90;;;;;;4972680;28;20232;-79
2023/01/14 06:53:18;;;;;;;39.47;16.15;;;5.40;99.90;;;;;;4990362;28;20444;-78
2023/01/14 06:55:44;;;;;;;5.30;1.57;;;5.40;99.90;;;;;;4972488;28;20189;-78
2023/01/14 06:58:10;;;;;;;12.13;2.07;;;5.40;99.90;;;;;;4972551;28;20480;-80
2023/01/14 07:00:37;;;;;;;11.37;1.57;;;5.50;99.90;;;;;;4972385;28;20640;-80
2023/01/14 07:03:02;;;;;;;8.50;2.50;;;5.40;99.90;;;;;;4989104;28;20448;-80
2023/01/14 07:05:28;;;;;;;18.60;2.60;;;5.40;99.90;;;;;;4990012;28;20434;-80
2023/01/14 07:07:54;;;;;;;8.83;1.90;;;5.50;99.90;;;;;;4990939;28;20190;-80
2023/01/14 07:10:19;;;;;;;4.20;1.80;;;5.40;99.90;;;;;;4989810;28;20875;-80
2023/01/14 07:12:50;;;;;;;7.93;1.50;;;5.40;99.90;;;;;;4956296;28;20208;-81
2023/01/14 07:15:17;;;;;;;8.32;2.90;;;5.50;99.90;;;;;;4972435;28;20267;-81
2023/01/14 07:17:47;;;;;;;10.97;1.97;;;5.60;99.90;;;;;;4972196;28;20193;-81
2023/01/14 07:20:14;;;;;;;6.13;1.50;;;5.60;99.90;;;;;;4990887;28;20467;-80
2023/01/14 07:22:40;;;;;;;4.23;1.93;;;5.70;99.90;;;;;;4975674;28;20445;-81
2023/01/14 07:25:06;;;;;;;10.03;2.13;;;5.70;99.90;;;;;;4975762;28;20435;-81
2023/01/14 07:27:33;;;;;;;8.63;1.77;;;5.70;99.90;;;;;;4977275;28;20553;-81
2023/01/14 07:29:59;;;;;;;4.47;1.83;;;5.80;99.90;;;;;;4977879;28;20223;-80
2023/01/14 07:32:25;;;;;;;8.37;1.77;;;6.00;99.90;;;;;;4991409;28;20936;-80
2023/01/14 07:34:50;;;;;;;5.82;1.67;;;5.80;99.90;;;;;;4993162;28;20507;-80
2023/01/14 07:37:17;;;;;;;8.30;2.07;;;5.90;99.90;;;;;;4975474;28;20285;-81
2023/01/14 07:39:42;;;;;;;11.90;1.60;;;6.10;99.90;;;;;;4975324;28;20297;-80
2023/01/14 07:42:08;;;;;;;7.17;1.90;;;6.10;99.90;;;;;;4991544;28;21010;-80
2023/01/14 07:44:34;;;;;;;6.57;1.57;;;6.10;99.90;;;;;;4993188;28;20256;-80
2023/01/14 07:46:59;;;;;;;8.73;1.53;;;6.10;99.90;;;;;;4959332;28;20281;-80
2023/01/14 07:49:25;;;;;;;9.17;1.30;;;6.10;99.90;;;;;;4975336;28;20224;-80
2023/01/14 07:51:51;;;;;;;4.67;1.10;;;6.20;99.90;;;;;;4975232;28;20178;-80
2023/01/14 07:54:18;;;;;;;4.53;1.33;;;6.30;99.90;;;;;;4993781;28;20425;-81
2023/01/14 07:56:44;;;;;;;6.07;1.63;;;6.30;99.90;;;;;;4992971;28;20448;-80
2023/01/14 07:59:10;;;;;;;9.35;1.50;;;6.30;99.90;;;;;;4975329;28;20465;-80
2023/01/14 08:01:36;;;;;;;3.60;1.33;;;6.30;99.90;;;;;;4975444;28;20201;-81
2023/01/14 08:04:02;;;;;;;4.53;1.20;;;6.40;99.90;;;;;;4958854;28;20185;-81
2023/01/14 08:06:29;;;;;;;4.20;1.90;;;6.40;99.90;;;;;;4976025;28;21260;-81
2023/01/14 08:08:54;;;;;;;2.40;1.07;;;6.50;99.90;;;;;;4976353;28;20920;-80
2023/01/14 08:11:20;;;;;;;11.60;1.63;;;6.50;99.90;;;;;;4976280;28;20519;-81
2023/01/14 08:13:48;;;;;;;7.97;1.40;;;6.60;99.90;;;;;;4976180;28;20210;-80
2023/01/14 08:16:15;;;;;;;4.83;1.80;;;6.60;99.90;;;;;;4992054;28;20186;-80
2023/01/14 08:18:40;;;;;;;7.60;2.10;;;6.70;99.90;;;;;;4959919;28;20564;-80
2023/01/14 08:21:09;;;;;;;9.37;1.57;;;6.60;99.90;;;;;;4991915;28;20484;-81
2023/01/14 08:23:35;;;;;;;4.70;1.60;;;6.60;99.90;;;;;;4976004;28;20251;-80
2023/01/14 08:26:01;;;;;;;5.07;1.20;;;6.70;99.90;;;;;;4993523;28;20444;-81
2023/01/14 08:28:27;;;;;;;7.07;1.60;;;6.80;99.90;;;;;;4992405;28;20421;-81
2023/01/14 08:31:07;;;;;;;4.47;1.10;;;6.80;99.90;;;;;;4976131;28;20425;-80
2023/01/14 08:33:33;;;;;;;5.77;1.07;;;6.80;99.90;;;;;;4976495;28;20504;-80
2023/01/14 08:36:08;;;;;;;2.20;0.80;;;6.90;99.90;;;;;;4976221;28;20425;-81
2023/01/14 08:38:34;;;;;;;4.40;1.27;;;6.90;99.90;;;;;;4975219;28;20953;-80
2023/01/14 08:41:08;;;;;;;5.20;1.10;;;6.90;99.90;;;;;;4959629;28;20801;-81
2023/01/14 08:43:34;;;;;;;3.23;0.90;;;7.00;99.90;;;;;;4992028;28;20441;-80
2023/01/14 08:46:00;;;;;;;4.53;1.07;;;7.10;99.90;;;;;;4992983;28;20420;-81
2023/01/14 08:48:27;;;;;;;6.47;1.97;;;7.00;99.90;;;;;;4975092;28;20444;-81
2023/01/14 08:50:53;;;;;;;2.57;0.90;;;7.30;99.90;;;;;;4975164;28;20765;-80
2023/01/14 08:53:19;;;;;;;4.17;0.97;;;7.50;99.90;;;;;;4993263;28;20452;-80
2023/01/14 08:55:45;;;;;;;3.17;1.20;;;7.20;99.90;;;;;;4976235;28;20464;-81
2023/01/14 08:58:11;;;;;;;4.20;1.23;;;7.30;99.90;;;;;;4959145;28;20514;-80
2023/01/14 09:00:36;;;;;;;5.30;0.90;;;7.30;99.90;;;;;;4959023;28;20217;-81
2023/01/14 09:03:02;;;;;;;9.23;0.97;;;7.20;99.90;;;;;;4992042;28;20284;-80
2023/01/14 09:05:30;;;;;;;5.43;1.30;;;7.20;99.90;;;;;;4992167;28;20667;-81
2023/01/14 09:18:59;;;;;;;2.40;1.50;;;7.30;99.90;;;;;;4992336;28;20456;-80
2023/01/14 09:21:24;;;;;;;4.90;1.60;;;7.40;99.90;;;;;;4990859;28;20413;-81
2023/01/14 09:23:50;;;;;;;3.73;1.20;;;7.40;99.90;;;;;;4959178;28;20342;-82
2023/01/14 09:26:16;;;;;;;2.97;0.90;;;7.50;99.90;;;;;;4962841;28;20197;-81
2023/01/14 09:28:42;;;;;;;3.50;0.80;;;7.50;99.90;;;;;;4980001;28;20441;-82
2023/01/14 09:31:08;;;;;;;5.93;0.90;;;7.50;99.90;;;;;;4978846;28;20926;-81
2023/01/14 09:33:33;;;;;;;2.50;1.10;;;7.60;99.90;;;;;;4978677;28;20236;-81
2023/01/14 09:36:00;;;;;;;2.50;0.60;;;7.60;99.90;;;;;;4978877;28;20536;-82
2023/01/14 09:38:26;;;;;;;3.47;1.60;;;7.60;99.90;;;;;;4978794;28;20190;-82
2023/01/14 09:40:52;;;;;;;3.83;1.13;;;7.60;99.90;;;;;;4978593;28;20440;-82
2023/01/14 09:43:19;;;;;;;5.43;0.83;;;7.60;99.90;;;;;;4994892;28;20218;-82
2023/01/14 09:45:48;;;;;;;4.43;1.00;;;7.60;99.90;;;;;;4978850;28;20212;-82
2023/01/14 09:48:17;;;;;;;3.67;0.90;;;7.70;99.90;;;;;;4962596;28;20429;-81
2023/01/14 09:51:04;;;;;;;1.73;0.60;;;7.70;99.90;;;;;;4995001;28;20424;-82
2023/01/14 09:53:52;;;;;;;3.30;0.80;;;7.70;99.90;;;;;;4992084;28;20514;-80
2023/01/14 09:57:16;;;;;;;4.43;1.10;;;7.80;99.90;;;;;;4973059;28;20456;-81
2023/01/14 09:59:56;;;;;;;4.07;1.37;;;7.90;99.90;;;;;;4932437;29;20459;-80
2023/01/14 10:02:35;;;;;;;2.37;1.60;;;7.90;99.90;;;;;;4972294;28;20445;-81
2023/01/14 10:05:18;;;;;;;1.17;0.60;;;8.00;99.90;;;;;;4972196;28;20416;-81
2023/01/14 10:07:44;;;;;;;2.80;0.90;;;8.00;99.90;;;;;;4972475;28;20475;-80
2023/01/14 10:10:35;;;;;;;5.73;0.70;;;8.00;99.90;;;;;;4957003;28;20465;-81
2023/01/14 10:13:06;;;;;;;3.30;1.10;;;8.00;99.90;;;;;;4975635;28;20484;-83
2023/01/14 10:15:38;;;;;;;4.30;0.60;;;8.20;99.90;;;;;;4974855;28;20405;-80
2023/01/14 10:18:13;;;;;;;2.77;0.90;;;8.20;99.90;;;;;;4991976;28;20433;-81
2023/01/14 10:20:54;;;;;;;1.70;0.80;;;8.40;99.90;;;;;;4991113;28;20471;-80
2023/01/14 10:23:24;;;;;;;1.93;0.70;;;8.30;99.90;;;;;;4992735;28;20433;-82
2023/01/14 10:25:52;;;;;;;4.90;0.97;;;8.40;99.90;;;;;;4992273;28;20425;-81
2023/01/14 10:28:29;;;;;;;0.80;0.50;;;8.20;99.90;;;;;;4975305;28;20424;-82
2023/01/14 10:30:58;;;;;;;3.83;0.83;;;8.40;99.90;;;;;;4993140;28;20824;-81
2023/01/14 10:33:24;;;;;;;1.90;0.60;;;8.40;99.90;;;;;;4959213;28;20467;-81
2023/01/14 10:36:04;;;;;;;3.83;0.70;;;8.40;99.90;;;;;;4991733;28;20437;-82
2023/01/14 10:38:29;;;;;;;1.70;0.70;;;8.40;99.90;;;;;;4975800;28;20190;-81
2023/01/14 10:41:00;;;;;;;3.10;1.00;;;8.40;99.90;;;;;;4975823;28;20433;-81
2023/01/14 10:43:37;;;;;;;1.70;0.93;;;8.40;99.90;;;;;;4976313;28;20233;-83
2023/01/14 10:46:03;;;;;;;4.00;0.93;;;8.30;99.90;;;;;;4975736;28;20433;-82
2023/01/14 10:48:49;;;;;;;7.07;1.33;;;8.20;99.90;;;;;;4958347;28;20508;-82
2023/01/14 10:51:35;;;;;;;4.27;1.43;;;8.30;99.90;;;;;;4974450;28;20635;-83
2023/01/14 10:54:18;;;;;;;2.40;0.70;;;8.20;99.90;;;;;;4974501;28;20968;-83
2023/01/14 10:56:52;;;;;;;5.50;0.80;;;8.20;99.90;;;;;;4994338;28;20416;-82
2023/01/14 10:59:44;;;;;;;1.73;0.90;;;8.30;99.90;;;;;;4994649;28;20460;-83
2023/01/14 11:02:21;;;;;;;2.43;0.73;;;8.40;99.90;;;;;;4978513;28;20445;-83
2023/01/14 11:04:48;;;;;;;2.30;0.80;;;8.50;99.90;;;;;;4978360;28;20969;-83
2023/01/14 11:07:24;;;;;;;3.90;0.70;;;8.50;99.90;;;;;;4996622;28;20428;-83
2023/01/14 11:09:50;;;;;;;2.80;0.60;;;8.50;99.90;;;;;;4979173;28;20455;-82
2023/01/14 11:12:32;;;;;;;2.90;0.90;;;8.40;99.90;;;;;;4993703;28;20794;-82
2023/01/14 11:14:59;;;;;;;2.50;0.70;;;8.40;99.90;;;;;;4993934;28;20185;-83
2023/01/14 11:17:27;;;;;;;1.50;0.70;;;8.50;99.90;;;;;;4993098;28;20425;-82
2023/01/14 11:20:21;;;;;;;2.10;0.83;;;8.50;99.90;;;;;;4976909;28;20523;-82
2023/01/14 11:23:01;;;;;;;7.83;1.60;;;8.30;99.90;;;;;;4977091;28;20564;-82
2023/01/14 11:25:28;;;;;;;3.43;0.90;;;8.40;99.90;;;;;;4976917;28;20430;-82
2023/01/14 11:27:55;;;;;;;7.23;1.07;;;8.30;99.90;;;;;;4977344;28;20425;-83
2023/01/14 11:30:23;;;;;;;3.53;0.97;;;8.30;99.90;;;;;;4994562;28;20436;-82
2023/01/14 11:32:51;;;;;;;5.57;1.37;;;8.30;99.90;;;;;;4981164;28;20469;-83
2023/01/14 11:35:24;;;;;;;2.10;1.07;;;8.20;99.90;;;;;;4996993;28;20918;-82
2023/01/14 11:37:53;;;;;;;4.17;0.80;;;8.30;99.90;;;;;;4979557;28;20424;-82
2023/01/14 11:41:28;;;;;;;7.63;1.27;;;8.30;99.90;;;;;;4996147;28;20497;-82
2023/01/14 11:43:11;;;;;;;3.83;1.10;;;8.30;99.90;;;;;;4996887;28;20445;-83
2023/01/14 11:45:37;;;;;;;3.87;1.27;;;8.40;99.90;;;;;;4962137;28;20425;-82
2023/01/14 11:48:25;;;;;;;3.23;1.00;;;8.40;99.90;;;;;;4962198;28;20177;-83
2023/01/14 11:51:14;;;;;;;5.20;1.17;;;8.30;99.90;;;;;;4977628;28;20645;-82
2023/01/14 11:53:47;;;;;;;5.30;1.80;;;8.20;99.90;;;;;;4976742;28;20458;-83
2023/01/14 11:56:27;;;;;;;6.73;1.50;;;8.20;99.90;;;;;;4977241;28;20879;-83
2023/01/14 11:58:53;;;;;;;3.13;1.37;;;8.20;99.90;;;;;;4992798;28;20505;-82
2023/01/14 12:01:32;;;;;;;8.87;2.20;;;8.20;99.90;;;;;;4993329;28;20429;-82
2023/01/14 12:04:08;;;;;;;2.07;1.80;;;8.20;99.90;;;;;;4977128;28;20605;-82
2023/01/14 12:06:54;;;;;;;4.53;1.30;;;8.30;99.90;;;;;;4975382;28;20915;-83
2023/01/14 12:09:47;;;;;;;5.70;1.53;;;8.30;99.90;;;;;;4994156;28;20444;-82
2023/01/14 12:12:18;;;;;;;5.50;1.40;;;8.20;99.90;;;;;;4976266;28;20457;-82
2023/01/14 12:17:40;;;;;;;5.07;1.30;;;8.20;99.90;;;;;;4994836;28;20977;-83
2023/01/14 12:20:11;;;;;;;7.70;1.97;;;8.20;99.90;;;;;;4995388;28;20549;-83
2023/01/14 12:23:03;;;;;;;7.30;1.83;;;8.20;99.90;;;;;;4994388;28;20468;-83
2023/01/14 12:25:42;;;;;;;4.13;1.10;;;8.30;99.90;;;;;;4995380;28;20433;-82
2023/01/14 12:28:19;;;;;;;4.43;1.20;;;8.40;99.90;;;;;;4976739;28;20520;-84
2023/01/14 12:30:56;;;;;;;7.83;1.47;;;8.30;99.90;;;;;;4977523;28;20437;-83
2023/01/14 12:33:31;;;;;;;6.00;1.23;;;8.30;99.90;;;;;;4976740;28;20473;-83
2023/01/14 12:36:04;;;;;;;4.90;1.47;;;8.30;99.90;;;;;;4992226;28;20420;-82
2023/01/14 12:48:04;;;;;;;6.13;1.67;;;8.40;99.90;;;;;;4933537;29;20419;-82
2023/01/14 12:50:30;;;;;;;3.67;1.30;;;8.50;99.90;;;;;;4918175;29;20523;-82
2023/01/14 12:52:58;;;;;;;5.20;1.27;;;8.60;99.90;;;;;;4962289;28;20493;-83
2023/01/14 12:55:46;;;;;;;6.47;1.70;;;8.60;99.90;;;;;;4975293;28;20425;-83
2023/01/14 12:58:33;;;;;;;3.60;1.17;;;8.60;99.90;;;;;;4960327;28;20915;-83
2023/01/14 13:01:04;;;;;;;4.70;0.97;;;8.60;99.90;;;;;;4976955;28;20544;-84
2023/01/14 13:03:37;;;;;;;10.23;1.40;;;8.60;99.90;;;;;;4977404;28;20433;-84
2023/01/14 13:06:17;;;;;;;3.03;1.30;;;8.70;99.90;;;;;;4994901;28;20441;-83
2023/01/14 13:08:50;;;;;;;1.40;1.20;;;8.80;99.90;;;;;;4993815;28;20484;-83
2023/01/14 13:11:23;;;;;;;2.03;0.93;;;8.90;99.90;;;;;;4993755;28;20400;-84
2023/01/14 13:13:54;;;;;;;3.93;1.40;;;8.90;99.90;;;;;;4983191;28;20437;-84
2023/01/14 13:16:35;;;;;;;2.40;1.30;;;8.80;99.90;;;;;;4993923;28;20794;-84
2023/01/14 13:19:28;;;;;;;1.70;1.00;;;8.70;99.90;;;;;;4992761;28;20456;-84
2023/01/14 13:22:01;;;;;;;4.90;1.27;;;8.80;99.90;;;;;;4973682;28;20417;-83
2023/01/14 13:24:28;;;;;;;3.13;1.10;;;8.80;99.90;;;;;;4992318;28;20417;-85
2023/01/14 13:26:56;;;;;;;3.07;1.03;;;8.70;99.90;;;;;;4992331;28;20773;-82
2023/01/14 13:29:25;;;;;;;4.10;1.00;;;8.80;99.90;;;;;;4993118;28;20417;-83
2023/01/14 13:31:52;;;;;;;1.70;1.00;;;8.70;99.90;;;;;;4977341;28;20445;-83
2023/01/14 13:34:21;;;;;;;2.67;1.00;;;8.80;99.90;;;;;;4962032;28;20432;-83
2023/01/14 13:37:02;;;;;;;1.53;0.90;;;9.00;99.90;;;;;;4993433;28;20530;-84
2023/01/14 13:39:30;;;;;;;3.57;1.10;;;8.90;99.90;;;;;;4993791;28;20793;-84
2023/01/14 13:41:58;;;;;;;9.13;1.37;;;8.90;99.90;;;;;;4976748;28;20579;-84
2023/01/14 13:44:31;;;;;;;1.60;0.90;;;8.90;99.90;;;;;;4993924;28;20425;-84
2023/01/14 13:47:15;;;;;;;3.00;1.10;;;8.90;99.90;;;;;;4975509;28;20420;-84
2023/01/14 13:49:44;;;;;;;5.60;1.17;;;9.00;99.90;;;;;;4975957;28;20437;-84